createdAt,value
2022-10-05T00:01:46.300Z,99177.50
2022-10-05T00:04:22.629Z,99175.00
2022-10-05T00:07:09.342Z,99176.81
2022-10-05T00:09:35.822Z,99173.63
2022-10-05T00:12:20.574Z,99176.00
2022-10-05T00:14:51.235Z,99169.94
2022-10-05T00:17:20.129Z,99170.09
2022-10-05T00:19:54.017Z,99176.47
2022-10-05T00:22:31.160Z,99179.34
2022-10-05T00:25:02.139Z,99180.13
2022-10-05T00:27:33.654Z,99181.50
2022-10-05T00:30:13.461Z,99172.63
2022-10-05T00:32:39.976Z,99171.94
2022-10-05T00:35:07.021Z,99174.78
2022-10-05T00:37:33.849Z,99172.75
2022-10-05T00:40:00.872Z,99164.34
2022-10-05T00:42:33.685Z,99164.53
2022-10-05T00:45:03.355Z,99162.16
2022-10-05T00:47:45.875Z,99152.28
2022-10-05T00:50:28.667Z,99165.19
2022-10-05T00:53:11.788Z,99157.31
2022-10-05T00:56:09.756Z,99150.59
2022-10-05T00:58:54.503Z,99149.09
2022-10-05T01:01:31.332Z,99151.22
2022-10-05T01:04:20.422Z,99155.75
2022-10-05T01:07:20.832Z,99149.75
2022-10-05T01:10:08.319Z,99154.41
2022-10-05T01:12:45.588Z,99150.22
2022-10-05T01:15:51.589Z,99141.16
2022-10-05T01:18:25.616Z,99146.38
2022-10-05T01:21:14.361Z,99155.88
2022-10-05T01:24:17.032Z,99146.00
2022-10-05T01:27:37.171Z,99153.38
2022-10-05T01:30:12.522Z,99148.63
2022-10-05T01:32:59.173Z,99149.31
2022-10-05T01:35:39.925Z,99143.28
2022-10-05T01:38:24.308Z,99152.31
2022-10-05T01:40:59.148Z,99143.25
2022-10-05T01:43:41.716Z,99152.44
2022-10-05T01:46:28.633Z,99139.19
2022-10-05T01:48:58.887Z,99139.06
2022-10-05T01:52:03.424Z,99147.03
2022-10-05T01:54:55.080Z,99133.34
2022-10-05T01:57:27.550Z,99127.75
2022-10-05T02:00:09.224Z,99134.78
2022-10-05T02:02:48.364Z,99125.75
2022-10-05T02:05:26.508Z,99122.91
2022-10-05T02:07:58.844Z,99129.25
2022-10-05T02:10:43.582Z,99122.34
2022-10-05T02:13:15.610Z,99118.31
2022-10-05T02:15:46.125Z,99115.50
2022-10-05T02:18:30.357Z,99118.31
2022-10-05T02:21:03.045Z,99118.00
2022-10-05T02:23:34.605Z,99118.53
2022-10-05T02:26:02.569Z,99122.53
2022-10-05T02:28:43.105Z,99112.97
2022-10-05T02:31:14.370Z,99107.59
2022-10-05T02:33:40.972Z,99106.94
2022-10-05T02:36:29.639Z,99108.91
2022-10-05T02:39:06.313Z,99111.28
2022-10-05T02:41:41.881Z,99111.09
2022-10-05T02:44:45.668Z,99106.84
2022-10-05T02:47:41.304Z,99099.94
2022-10-05T02:50:27.153Z,99107.94
2022-10-05T02:53:07.612Z,99107.78
2022-10-05T02:55:50.781Z,99101.69
2022-10-05T02:58:24.955Z,99092.28
2022-10-05T03:01:17.765Z,99101.22
2022-10-05T03:04:12.702Z,99099.00
2022-10-05T03:06:58.730Z,99100.31
2022-10-05T03:09:31.590Z,99109.66
2022-10-05T03:12:13.888Z,99106.34
2022-10-05T03:14:57.678Z,99111.75
2022-10-05T03:17:40.815Z,99114.00
2022-10-05T03:20:38.376Z,99109.66
2022-10-05T03:23:13.960Z,99109.66
2022-10-05T03:25:52.852Z,99112.19
2022-10-05T03:28:25.253Z,99109.66
2022-10-05T03:31:06.258Z,99109.56
2022-10-05T03:33:59.150Z,99108.59
2022-10-05T03:36:57.785Z,99112.56
2022-10-05T03:39:41.973Z,99109.38
2022-10-05T03:42:20.286Z,99120.22
2022-10-05T03:44:59.377Z,99109.00
2022-10-05T03:47:57.713Z,99112.97
2022-10-05T03:50:47.584Z,99101.75
2022-10-05T03:53:23.502Z,99115.47
2022-10-05T03:56:02.058Z,99110.47
2022-10-05T03:58:56.193Z,99102.47
2022-10-05T04:01:30.547Z,99098.91
2022-10-05T04:04:05.413Z,99104.34
2022-10-05T04:06:42.022Z,99092.28
2022-10-05T04:09:16.990Z,99086.94
2022-10-05T04:11:57.612Z,99095.66
2022-10-05T04:14:38.782Z,99086.25
2022-10-05T04:17:12.292Z,99089.38
2022-10-05T04:19:45.474Z,99084.13
2022-10-05T04:22:23.405Z,99094.34
2022-10-05T04:25:06.324Z,99091.91
2022-10-05T04:27:47.103Z,99086.78
2022-10-05T04:30:17.704Z,99095.63
2022-10-05T04:32:53.561Z,99094.41
2022-10-05T04:35:25.832Z,99092.88
2022-10-05T04:38:46.444Z,99083.78
2022-10-05T04:41:30.534Z,99083.56
2022-10-05T04:44:27.930Z,99094.06
2022-10-05T04:47:22.636Z,99096.22
2022-10-05T04:50:07.041Z,99093.16
2022-10-05T04:53:02.723Z,99089.50
2022-10-05T04:55:51.985Z,99093.16
2022-10-05T04:58:18.610Z,99099.50
2022-10-05T05:00:51.582Z,99095.44
2022-10-05T05:03:34.870Z,99099.09
2022-10-05T05:06:17.198Z,99094.06
2022-10-05T05:08:53.180Z,99101.38
2022-10-05T05:11:34.332Z,99098.63
2022-10-05T05:14:38.204Z,99090.63
2022-10-05T05:17:31.008Z,99093.47
2022-10-05T05:20:11.560Z,99088.72
2022-10-05T05:22:51.010Z,99092.13
2022-10-05T05:25:39.929Z,99085.66
2022-10-05T05:28:41.071Z,99091.59
2022-10-05T05:31:20.130Z,99091.59
2022-10-05T05:34:07.196Z,99087.63
2022-10-05T05:36:48.826Z,99098.63
2022-10-05T05:39:33.810Z,99096.94
2022-10-05T05:42:22.648Z,99114.63
2022-10-05T05:44:52.711Z,99110.50
2022-10-05T05:47:23.363Z,99109.53
2022-10-05T05:50:02.890Z,99119.47
2022-10-05T05:52:53.638Z,99122.44
2022-10-05T05:55:34.741Z,99122.75
2022-10-05T05:58:25.152Z,99128.09
2022-10-05T06:01:01.367Z,99126.09
2022-10-05T06:03:39.843Z,99130.59
2022-10-05T06:06:32.074Z,99132.28
2022-10-05T06:09:03.485Z,99137.19
2022-10-05T06:12:04.041Z,99146.72
2022-10-05T06:14:49.880Z,99144.59
2022-10-05T06:17:26.836Z,99142.84
2022-10-05T06:20:02.507Z,99136.09
2022-10-05T06:22:45.526Z,99145.53
2022-10-05T06:25:13.489Z,99146.56
2022-10-05T06:28:16.196Z,99148.38
2022-10-05T06:31:03.889Z,99150.63
2022-10-05T06:33:44.053Z,99144.50
2022-10-05T06:36:48.910Z,99154.44
2022-10-05T06:40:05.668Z,99145.44
2022-10-05T06:42:53.275Z,99159.63
2022-10-05T06:45:49.987Z,99160.31
2022-10-05T06:49:11.091Z,99149.72
2022-10-05T06:51:59.328Z,99157.63
2022-10-05T06:55:20.827Z,99157.56
2022-10-05T06:58:06.141Z,99151.63
2022-10-05T07:00:44.028Z,99153.00
2022-10-05T07:03:20.750Z,99152.56
2022-10-05T07:06:04.522Z,99159.97
2022-10-05T07:08:37.409Z,99155.41
2022-10-05T07:11:07.186Z,99155.06
2022-10-05T07:14:12.789Z,99158.63
2022-10-05T07:16:52.246Z,99159.03
2022-10-05T07:19:37.024Z,99152.75
2022-10-05T07:22:36.984Z,99154.47
2022-10-05T07:25:19.096Z,99157.06
2022-10-05T07:27:58.790Z,99148.56
2022-10-05T07:30:25.530Z,99148.59
2022-10-05T07:33:00.025Z,99158.66
2022-10-05T07:36:04.725Z,99149.84
2022-10-05T07:38:45.584Z,99150.03
2022-10-05T07:41:40.228Z,99152.25
2022-10-05T07:44:23.377Z,99155.31
2022-10-05T07:46:51.117Z,99149.00
2022-10-05T07:49:36.478Z,99141.06
2022-10-05T07:52:12.374Z,99144.38
2022-10-05T07:54:52.561Z,99145.22
2022-10-05T07:58:23.059Z,99153.34
2022-10-05T08:01:16.948Z,99145.84
2022-10-05T08:03:56.538Z,99145.59
2022-10-05T08:06:40.374Z,99138.03
2022-10-05T08:09:31.309Z,99138.91
2022-10-05T08:12:02.465Z,99131.22
2022-10-05T08:14:42.315Z,99140.53
2022-10-05T08:17:44.149Z,99133.69
2022-10-05T08:20:29.632Z,99135.94
2022-10-05T08:23:33.808Z,99133.97
2022-10-05T08:26:15.116Z,99136.69
2022-10-05T08:28:53.216Z,99136.44
2022-10-05T08:31:31.914Z,99134.38
2022-10-05T08:34:22.134Z,99129.22
2022-10-05T08:37:15.968Z,99126.75
2022-10-05T08:40:18.743Z,99136.28
2022-10-05T08:43:22.678Z,99146.06
2022-10-05T08:46:03.001Z,99136.91
2022-10-05T08:48:56.215Z,99147.69
2022-10-05T08:52:22.534Z,99148.63
2022-10-05T08:55:27.634Z,99146.22
2022-10-05T08:58:48.460Z,99139.97
2022-10-05T09:01:15.208Z,99141.06
2022-10-05T09:03:53.853Z,99148.13
2022-10-05T09:06:46.782Z,99150.59
2022-10-05T09:09:16.167Z,99148.50
2022-10-05T09:12:39.133Z,99146.06
2022-10-05T09:15:30.082Z,99141.84
2022-10-05T09:18:30.286Z,99142.75
2022-10-05T09:21:26.177Z,99142.25
2022-10-05T09:24:15.650Z,99135.28
2022-10-05T09:27:07.657Z,99146.38
2022-10-05T09:29:48.418Z,99136.22
2022-10-05T09:32:52.037Z,99132.59
2022-10-05T09:35:43.193Z,99144.06
2022-10-05T09:38:57.250Z,99145.94
2022-10-05T09:42:09.929Z,99146.81
2022-10-05T09:45:28.692Z,99125.06
2022-10-05T09:48:08.497Z,99146.47
2022-10-05T09:50:38.012Z,99141.72
2022-10-05T09:53:40.425Z,99133.53
2022-10-05T09:56:55.108Z,99139.16
2022-10-05T09:59:51.854Z,99133.53
2022-10-05T10:02:42.053Z,99134.28
2022-10-05T10:05:24.643Z,99124.84
2022-10-05T10:08:05.622Z,99132.06
2022-10-05T10:10:57.199Z,99132.03
2022-10-05T10:14:04.344Z,99137.19
2022-10-05T10:16:49.293Z,99129.22
2022-10-05T10:19:44.200Z,99136.88
2022-10-05T10:22:46.093Z,99122.97
2022-10-05T10:25:39.769Z,99131.72
2022-10-05T10:28:43.349Z,99122.78
2022-10-05T10:31:28.634Z,99128.59
2022-10-05T10:34:24.289Z,99125.06
2022-10-05T10:37:11.157Z,99139.84
2022-10-05T10:40:20.377Z,99138.38
2022-10-05T10:42:56.235Z,99141.09
2022-10-05T10:45:48.285Z,99128.94
2022-10-05T10:48:30.042Z,99129.97
2022-10-05T10:51:33.728Z,99131.47
2022-10-05T10:54:14.357Z,99121.63
2022-10-05T10:56:55.230Z,99120.44
2022-10-05T10:59:53.843Z,99117.28
2022-10-05T11:02:29.269Z,99123.56
2022-10-05T11:05:08.106Z,99123.41
2022-10-05T11:07:52.766Z,99119.00
2022-10-05T11:10:26.015Z,99130.25
2022-10-05T11:13:11.434Z,99115.97
2022-10-05T11:16:01.293Z,99112.84
2022-10-05T11:19:13.764Z,99106.28
2022-10-05T11:22:13.334Z,99112.94
2022-10-05T11:25:33.533Z,99108.00
2022-10-05T11:28:49.727Z,99107.75
2022-10-05T11:32:04.000Z,99110.47
2022-10-05T11:35:03.334Z,99126.00
2022-10-05T11:37:47.045Z,99100.44
2022-10-05T11:40:43.165Z,99111.16
2022-10-05T11:43:21.753Z,99115.56
2022-10-05T11:45:59.661Z,99091.72
2022-10-05T11:48:33.891Z,99083.03
2022-10-05T11:51:26.457Z,99097.34
2022-10-05T11:54:21.539Z,99087.53
2022-10-05T11:57:13.589Z,99079.06
2022-10-05T11:59:50.337Z,99086.03
2022-10-05T12:02:45.876Z,99079.44
2022-10-05T12:05:32.408Z,99070.66
2022-10-05T12:08:17.764Z,99075.00
2022-10-05T12:11:08.532Z,99077.47
2022-10-05T12:14:13.565Z,99066.75
2022-10-05T12:16:49.458Z,99063.66
2022-10-05T12:19:27.208Z,99073.34
2022-10-05T12:22:03.968Z,99071.00
2022-10-05T12:24:36.412Z,99076.41
2022-10-05T12:27:09.462Z,99061.94
2022-10-05T12:29:47.885Z,99079.06
2022-10-05T12:32:24.466Z,99072.03
2022-10-05T12:35:14.590Z,99069.22
2022-10-05T12:37:54.900Z,99064.53
2022-10-05T12:40:39.690Z,99075.94
2022-10-05T12:43:12.383Z,99065.72
2022-10-05T12:45:53.173Z,99050.91
2022-10-05T12:48:40.024Z,99069.31
2022-10-05T12:51:16.886Z,99070.47
2022-10-05T12:54:06.713Z,99057.41
2022-10-05T12:56:54.630Z,99069.69
2022-10-05T12:59:37.764Z,99054.19
2022-10-05T13:02:27.378Z,99054.69
2022-10-05T13:05:04.367Z,99052.72
2022-10-05T13:07:46.305Z,99050.56
2022-10-05T13:10:31.005Z,99050.38
2022-10-05T13:13:20.505Z,99058.03
2022-10-05T13:16:08.703Z,99060.25
2022-10-05T13:18:54.311Z,99053.25
2022-10-05T13:21:33.555Z,99059.81
2022-10-05T13:24:14.204Z,99063.19
2022-10-05T13:26:46.153Z,99054.63
2022-10-05T13:29:28.124Z,99053.50
2022-10-05T13:32:00.161Z,99057.53
2022-10-05T13:34:26.572Z,99049.75
2022-10-05T13:37:09.196Z,99047.50
2022-10-05T13:39:51.169Z,99040.38
2022-10-05T13:42:21.450Z,99040.00
2022-10-05T13:44:56.502Z,99054.75
2022-10-05T13:47:34.486Z,99042.28
2022-10-05T13:50:16.868Z,99051.00
2022-10-05T13:52:49.478Z,99041.78
2022-10-05T13:55:47.189Z,99048.22
2022-10-05T13:58:28.473Z,99047.78
2022-10-05T14:00:58.173Z,99060.84
2022-10-05T14:03:29.556Z,99044.69
2022-10-05T14:06:01.473Z,99043.19
2022-10-05T14:08:32.381Z,99042.28
2022-10-05T14:10:59.534Z,99044.97
2022-10-05T14:13:33.624Z,99059.19
2022-10-05T14:16:19.110Z,99052.47
2022-10-05T14:19:05.841Z,99052.34
2022-10-05T14:21:46.349Z,99045.78
2022-10-05T14:24:46.379Z,99039.41
2022-10-05T14:27:24.838Z,99039.38
2022-10-05T14:30:19.172Z,99041.22
2022-10-05T14:33:03.822Z,99038.72
2022-10-05T14:35:44.844Z,99024.63
2022-10-05T14:38:17.353Z,99019.69
2022-10-05T14:40:43.918Z,99025.22
2022-10-05T14:43:20.341Z,99031.69
2022-10-05T14:45:55.179Z,99025.03
2022-10-05T14:48:22.377Z,99023.72
2022-10-05T14:51:02.174Z,99021.31
2022-10-05T14:53:41.686Z,99031.16
2022-10-05T14:56:21.894Z,99025.66
2022-10-05T14:59:06.928Z,99029.28
2022-10-05T15:01:36.567Z,99037.97
2022-10-05T15:04:23.134Z,99031.69
2022-10-05T15:07:21.433Z,99022.78
2022-10-05T15:10:11.630Z,99017.13
2022-10-05T15:12:43.673Z,99027.53
2022-10-05T15:15:32.673Z,99027.53
2022-10-05T15:18:12.112Z,99037.97
2022-10-05T15:21:00.469Z,99024.56
2022-10-05T15:23:40.667Z,99023.47
2022-10-05T15:26:36.248Z,99028.63
2022-10-05T15:29:30.493Z,99024.91
2022-10-05T15:32:14.538Z,99018.25
2022-10-05T15:34:53.906Z,99020.41
2022-10-05T15:37:49.963Z,99023.22
2022-10-05T15:40:23.173Z,99021.63
2022-10-05T15:42:53.308Z,99033.38
2022-10-05T15:45:42.868Z,99031.03
2022-10-05T15:48:25.297Z,99034.91
2022-10-05T15:51:06.981Z,99034.22
2022-10-05T15:53:37.567Z,99046.69
2022-10-05T15:56:14.249Z,99038.44
2022-10-05T15:58:53.041Z,99040.69
2022-10-05T16:01:47.160Z,99039.44
2022-10-05T16:04:41.307Z,99045.34
2022-10-05T16:07:35.262Z,99048.44
2022-10-05T16:10:23.334Z,99049.41
2022-10-05T16:13:05.120Z,99060.38
2022-10-05T16:15:41.318Z,99062.25
2022-10-05T16:18:43.148Z,99058.13
2022-10-05T16:21:22.356Z,99058.09
2022-10-05T16:24:09.213Z,99066.75
2022-10-05T16:26:50.989Z,99073.41
2022-10-05T16:29:47.276Z,99068.16
2022-10-05T16:32:21.933Z,99083.94
2022-10-05T16:34:58.354Z,99085.13
2022-10-05T16:37:39.078Z,99085.44
2022-10-05T16:40:22.720Z,99093.09
2022-10-05T16:42:56.907Z,99088.03
2022-10-05T16:45:26.654Z,99095.16
2022-10-05T16:48:07.986Z,99086.69
2022-10-05T16:51:19.513Z,99094.03
2022-10-05T16:54:01.908Z,99094.59
2022-10-05T16:56:37.313Z,99103.97
2022-10-05T16:59:06.552Z,99106.09
2022-10-05T17:01:33.192Z,99101.22
2022-10-05T17:04:24.222Z,99101.59
2022-10-05T17:07:04.833Z,99098.00
2022-10-05T17:10:20.024Z,99108.34
2022-10-05T17:13:25.206Z,99106.75
2022-10-05T17:16:14.834Z,99122.69
2022-10-05T17:19:19.496Z,99114.50
2022-10-05T17:22:00.671Z,99116.41
2022-10-05T17:24:36.141Z,99126.50
2022-10-05T17:27:35.553Z,99129.06
2022-10-05T17:30:22.824Z,99136.56
2022-10-05T17:33:04.484Z,99139.91
2022-10-05T17:35:51.789Z,99147.44
2022-10-05T17:38:26.624Z,99143.66
2022-10-05T17:41:40.353Z,99152.91
2022-10-05T17:44:16.227Z,99149.53
2022-10-05T17:46:45.876Z,99161.25
2022-10-05T17:50:15.142Z,99154.38
2022-10-05T17:53:02.540Z,99162.25
2022-10-05T17:56:01.480Z,99163.31
2022-10-05T17:58:28.624Z,99165.34
2022-10-05T18:01:13.207Z,99170.56
2022-10-05T18:03:51.375Z,99174.25
2022-10-05T18:06:31.915Z,99173.22
2022-10-05T18:09:13.865Z,99178.97
2022-10-05T18:11:43.008Z,99179.78
2022-10-05T18:14:15.997Z,99192.91
2022-10-05T18:17:13.264Z,99195.56
2022-10-05T18:19:42.281Z,99199.13
2022-10-05T18:22:17.837Z,99206.84
2022-10-05T18:25:06.842Z,99208.06
2022-10-05T18:28:00.848Z,99210.53
2022-10-05T18:30:33.630Z,99209.88
2022-10-05T18:33:07.616Z,99223.19
2022-10-05T18:35:38.300Z,99225.88
2022-10-05T18:38:20.589Z,99235.91
2022-10-05T18:41:02.527Z,99237.31
2022-10-05T18:43:58.621Z,99235.41
2022-10-05T18:46:56.200Z,99246.84
2022-10-05T18:49:34.808Z,99242.59
2022-10-05T18:52:36.689Z,99250.91
2022-10-05T18:55:18.497Z,99257.28
2022-10-05T18:57:57.743Z,99250.03
2022-10-05T19:00:26.650Z,99254.94
2022-10-05T19:03:25.389Z,99264.44
2022-10-05T19:06:12.884Z,99272.22
2022-10-05T19:08:59.257Z,99279.72
2022-10-05T19:11:30.171Z,99280.78
2022-10-05T19:14:05.599Z,99287.44
2022-10-05T19:17:08.390Z,99285.00
2022-10-05T19:20:08.824Z,99285.13
2022-10-05T19:22:59.776Z,99291.66
2022-10-05T19:25:29.325Z,99293.44
2022-10-05T19:28:02.846Z,99294.22
2022-10-05T19:30:58.702Z,99306.03
2022-10-05T19:33:31.611Z,99309.50
2022-10-05T19:36:25.852Z,99301.75
2022-10-05T19:39:10.502Z,99304.41
2022-10-05T19:41:40.047Z,99317.13
2022-10-05T19:44:25.486Z,99313.13
2022-10-05T19:47:00.655Z,99316.50
2022-10-05T19:49:44.530Z,99321.16
2022-10-05T19:52:20.957Z,99330.38
2022-10-05T19:55:01.656Z,99333.06
2022-10-05T19:57:28.758Z,99327.03
2022-10-05T19:59:58.396Z,99345.22
2022-10-05T20:02:28.123Z,99345.88
2022-10-05T20:05:06.610Z,99341.94
2022-10-05T20:07:34.364Z,99347.63
2022-10-05T20:10:25.341Z,99352.28
2022-10-05T20:12:55.954Z,99356.13
2022-10-05T20:15:44.946Z,99361.16
2022-10-05T20:19:04.706Z,99368.91
2022-10-05T20:21:38.788Z,99368.00
2022-10-05T20:24:10.259Z,99366.53
2022-10-05T20:27:06.641Z,99375.19
2022-10-05T20:29:41.288Z,99385.00
2022-10-05T20:32:12.104Z,99387.22
2022-10-05T20:34:43.717Z,99382.38
2022-10-05T20:37:17.563Z,99398.25
2022-10-05T20:39:45.360Z,99392.78
2022-10-05T20:42:12.377Z,99389.81
2022-10-05T20:44:39.398Z,99400.44
2022-10-05T20:47:09.502Z,99403.81
2022-10-05T20:49:38.669Z,99396.88
2022-10-05T20:52:10.196Z,99408.78
2022-10-05T20:54:38.633Z,99412.25
2022-10-05T20:57:06.137Z,99419.38
2022-10-05T20:59:33.988Z,99419.91
2022-10-05T21:02:01.564Z,99421.59
2022-10-05T21:04:40.927Z,99433.38
2022-10-05T21:07:08.140Z,99427.19
2022-10-05T21:09:34.688Z,99433.38
2022-10-05T21:12:01.194Z,99432.94
2022-10-05T21:14:30.546Z,99428.84
2022-10-05T21:16:57.019Z,99432.25
2022-10-05T21:19:23.431Z,99434.63
2022-10-05T21:21:49.926Z,99436.63
2022-10-05T21:24:17.264Z,99430.63
2022-10-05T21:26:44.801Z,99438.91
2022-10-05T21:29:12.893Z,99432.50
2022-10-05T21:31:40.224Z,99441.94
2022-10-05T21:34:07.024Z,99436.41
2022-10-05T21:36:33.811Z,99429.53
2022-10-05T21:39:00.735Z,99439.44
2022-10-05T21:41:27.200Z,99443.66
2022-10-05T21:43:53.792Z,99437.75
2022-10-05T21:46:21.449Z,99439.63
2022-10-05T21:48:48.430Z,99446.06
2022-10-05T21:51:18.758Z,99457.50
2022-10-05T21:53:53.325Z,99445.22
2022-10-05T21:56:22.455Z,99455.00
2022-10-05T21:58:50.666Z,99453.50
2022-10-05T22:01:22.469Z,99464.25
2022-10-05T22:03:49.162Z,99464.59
2022-10-05T22:06:15.596Z,99465.47
2022-10-05T22:08:41.963Z,99465.13
2022-10-05T22:11:11.994Z,99462.44
2022-10-05T22:13:49.855Z,99465.97
2022-10-05T22:16:18.860Z,99455.06
2022-10-05T22:18:45.607Z,99461.59
2022-10-05T22:21:13.793Z,99459.78
2022-10-05T22:23:41.766Z,99460.44
2022-10-05T22:26:10.796Z,99463.94
2022-10-05T22:28:39.494Z,99472.69
2022-10-05T22:31:09.433Z,99463.94
2022-10-05T22:33:36.929Z,99475.91
2022-10-05T22:36:06.108Z,99465.31
2022-10-05T22:38:32.897Z,99476.25
2022-10-05T22:40:59.358Z,99470.00
2022-10-05T22:43:27.712Z,99476.91
2022-10-05T22:45:54.699Z,99478.41
2022-10-05T22:48:21.549Z,99472.03
2022-10-05T22:50:48.798Z,99482.78
2022-10-05T22:53:15.271Z,99470.53
2022-10-05T22:55:41.669Z,99475.41
2022-10-05T22:58:08.060Z,99478.09
2022-10-05T23:00:56.556Z,99485.00
2022-10-05T23:03:20.850Z,99483.31
2022-10-05T23:05:47.248Z,99487.69
2022-10-05T23:08:13.628Z,99491.53
2022-10-05T23:10:40.044Z,99491.19
2022-10-05T23:13:08.223Z,99491.88
2022-10-05T23:15:34.628Z,99502.81
2022-10-05T23:18:01.096Z,99491.72
2022-10-05T23:20:27.438Z,99491.72
2022-10-05T23:22:53.888Z,99499.63
2022-10-05T23:25:22.088Z,99498.78
2022-10-05T23:27:48.529Z,99508.88
2022-10-05T23:30:14.964Z,99501.63
2022-10-05T23:32:42.020Z,99511.22
2022-10-05T23:35:10.329Z,99507.34
2022-10-05T23:37:41.342Z,99505.00
2022-10-05T23:40:10.391Z,99500.97
2022-10-05T23:42:36.800Z,99517.09
2022-10-05T23:45:03.846Z,99514.75
2022-10-05T23:47:30.492Z,99518.44
2022-10-05T23:49:56.977Z,99517.09
2022-10-05T23:52:23.481Z,99522.81
2022-10-05T23:54:49.858Z,99536.94
2022-10-05T23:57:19.766Z,99528.53
2022-10-05T23:59:46.362Z,99526.84
